EYKA/KUN METAR and TAF weather

Enter ICAO airport designator
Station Type Date Time Source
EYKA METAR 2020/03/29 21:20 UTC NOAA

EYKA 292120Z AUTO 34006KT 310V020 9999 FEW079/// OVC093/// M01/M08 Q1017


Station Type Date Time Source
EYKA Decoded METAR 2020/03/29 21:20 UTC NOAA

Kaunas, Lithuania (EYKA) 54-54N 023-55-12E
Mar 29, 2020 - 05:20 PM EDT / 2020.03.29 2120 UTC
Wind: from the NNW (340 degrees) at 7 MPH (6 KT) (direction variable):0
Visibility: greater than 7 mile(s):0
Sky conditions: overcast
Temperature: 30 F (-1 C)
Windchill: 23 F (-5 C):1
Dew Point: 17 F (-8 C)
Relative Humidity: 58%
Pressure (altimeter): 30.03 in. Hg (1017 hPa)
ob: EYKA 292120Z AUTO 34006KT 310V020 9999 FEW079/// OVC093/// M01/M08 Q1017
cycle: 21

Station Type Date Time Source
EYKA TAF 2020/03/29 18:03 UTC NOAA

TAF TAF EYKA 291700Z 2918/3018 01012KT 9000 BKN020
TEMPO 2918/2922 3000 SHSN SCT005 BKN015CB
BECMG 2922/2924 NSC
BECMG 3015/3016 VRB02KT

Example: see airport list